Cocodrie, Louisiana
Current Conditions -  °F | °C
As of 8:15 PM on Friday 19 Dec 2014 (Local Time) from KHUM Reporting Station
Haze Haze  
Wind Chill: 52°   Ceiling: 400
Heat Index: 52°   Visibility: 5mi
Dew Point: 51°   Wind: 10mph
Humidity: 97%   Direction: 30°NNE
Pressure: 30.06"   Gusts: NA
Location:  29.4719°N, 90.6177°W
Report Text: KHUM 200215Z AUTO 03009KT 5SM BR OVC004 11/11 A3006 RMK AO2 T01090105
Loading
Personal Weather Stations






























Interactive Weather Map New forecast layout! Learn more

10-Day Weather Forecast

Advertisements
Track Severe Weather on mobile